Etusivu
METAR-TAF:

METAR-TAF

Lentoasemat :

Beauvais-Tillén lentoasema

Beauvais, Ranska

Leveyspiiri: 49-28N, Pituuspiiri: 002-07E, korkeus merenpinnasta: 109 m

Tämänhetkinen sää

Tämä raportti tehtiin 15 minuuttia sitten, kello 11.00 UTC
Tuuli 9 kn idästä, vaihdellen koillisen ja idän/kaakon välillä
Lämpötila 16°C
Kosteus 68%
Ilmanpaine 1029 hPa
Näkyvyys 10 km tai enemmän
ei pilviä alle 1500 m:ssä eikä cumulonimbus-pilviä

METAR: LFOB 071100Z AUTO 08009KT 050V110 CAVOK 16/10 Q1029

Aika: 13:15 (11:15 UTC)


TAF: puuttuu

Säähavainnot ja -ennusteet yli 4000 lentoasemalta (METAR- ja TAF-raportit).

Käytössä olevat sääasemat on merkitty karttaan keltaisilla ja punaisilla pisteillä.

Aseta hiiri pisteen päälle nähdäksesi sääaseman nimen.

Klikkaa sitten nähdäksesi säähavainnot ja -ennusteet.

Kartan vaihtaminen: klikkaa mustalla rastilla varustettuja vihreitä pisteitä, niin voit zoomata sisään; viivalla varustettua vihreää pistettä, niin voit zoomata ulos tai vihreitä nuolia, niin pääset viereisille kartoille.


METAR-TAF: